createdAt,value
2023-03-29T00:00:14.282Z,100879.65
2023-03-29T00:03:04.426Z,100884.13
2023-03-29T00:05:36.152Z,100885.81
2023-03-29T00:08:04.479Z,100890.45
2023-03-29T00:10:33.652Z,100888.02
2023-03-29T00:13:02.346Z,100893.52
2023-03-29T00:15:30.432Z,100894.03
2023-03-29T00:17:58.463Z,100892.28
2023-03-29T00:20:27.206Z,100893.10
2023-03-29T00:22:56.058Z,100892.56
2023-03-29T00:25:24.079Z,100888.77
2023-03-29T00:27:51.897Z,100888.94
2023-03-29T00:30:20.001Z,100891.50
2023-03-29T00:32:47.691Z,100898.17
2023-03-29T00:35:16.859Z,100900.90
2023-03-29T00:37:47.287Z,100904.14
2023-03-29T00:40:15.519Z,100906.70
2023-03-29T00:42:46.842Z,100903.61
2023-03-29T00:45:19.663Z,100903.92
2023-03-29T00:48:07.137Z,100907.48
2023-03-29T00:50:36.349Z,100905.25
2023-03-29T00:53:04.192Z,100904.20
2023-03-29T00:55:35.006Z,100905.25
2023-03-29T00:58:04.994Z,100904.95
2023-03-29T01:00:39.037Z,100906.32
2023-03-29T01:03:13.683Z,100907.14
2023-03-29T01:05:44.955Z,100907.63
2023-03-29T01:08:18.377Z,100908.84
2023-03-29T01:10:50.824Z,100909.00
2023-03-29T01:13:21.840Z,100906.91
2023-03-29T01:15:49.879Z,100906.32
2023-03-29T01:18:20.035Z,100907.47
2023-03-29T01:20:49.073Z,100907.57
2023-03-29T01:23:21.562Z,100907.33
2023-03-29T01:25:52.252Z,100906.66
2023-03-29T01:28:24.621Z,100903.77
2023-03-29T01:30:56.174Z,100910.62
2023-03-29T01:33:26.350Z,100912.30
2023-03-29T01:36:04.937Z,100915.52
2023-03-29T01:38:46.389Z,100916.17
2023-03-29T01:41:14.394Z,100914.61
2023-03-29T01:43:48.843Z,100916.17
2023-03-29T01:46:25.973Z,100920.98
2023-03-29T01:48:57.254Z,100923.21
2023-03-29T01:51:25.364Z,100923.02
2023-03-29T01:53:57.760Z,100922.65
2023-03-29T01:56:28.445Z,100920.95
2023-03-29T01:58:58.433Z,100924.38
2023-03-29T02:01:29.944Z,100923.92
2023-03-29T02:04:03.083Z,100922.39
2023-03-29T02:06:34.109Z,100922.73
2023-03-29T02:09:02.709Z,100922.05
2023-03-29T02:11:30.748Z,100922.19
2023-03-29T02:13:58.611Z,100920.48
2023-03-29T02:16:26.762Z,100918.92
2023-03-29T02:18:56.369Z,100917.40
2023-03-29T02:21:42.781Z,100919.98
2023-03-29T02:24:13.572Z,100923.02
2023-03-29T02:26:41.720Z,100927.31
2023-03-29T02:29:09.893Z,100932.80
2023-03-29T02:31:53.403Z,100931.91
2023-03-29T02:34:31.661Z,100936.56
2023-03-29T02:37:03.413Z,100938.98
2023-03-29T02:39:33.796Z,100942.45
2023-03-29T02:42:02.851Z,100946.10
2023-03-29T02:44:32.056Z,100950.91
2023-03-29T02:47:14.084Z,100952.29
2023-03-29T02:49:42.071Z,100952.80
2023-03-29T02:52:16.201Z,100949.01
2023-03-29T02:54:45.954Z,100955.48
2023-03-29T02:57:14.062Z,100961.29
2023-03-29T02:59:44.061Z,100962.27
2023-03-29T03:02:13.574Z,100962.23
2023-03-29T03:04:43.286Z,100965.80
2023-03-29T03:07:11.157Z,100966.98
2023-03-29T03:09:40.145Z,100964.89
2023-03-29T03:12:09.807Z,100965.05
2023-03-29T03:14:38.106Z,100969.36
2023-03-29T03:17:06.133Z,100964.51
2023-03-29T03:19:34.367Z,100960.52
2023-03-29T03:22:03.083Z,100964.61
2023-03-29T03:24:32.521Z,100967.46
2023-03-29T03:27:00.819Z,100964.00
2023-03-29T03:29:29.017Z,100963.25
2023-03-29T03:31:59.373Z,100967.84
2023-03-29T03:34:46.127Z,100969.54
2023-03-29T03:37:15.319Z,100973.80
2023-03-29T03:39:43.659Z,100972.27
2023-03-29T03:42:12.144Z,100976.27
2023-03-29T03:44:43.136Z,100978.85
2023-03-29T03:47:46.228Z,100982.77
2023-03-29T03:50:27.419Z,100991.02
2023-03-29T03:52:55.592Z,100993.55
2023-03-29T03:55:24.077Z,100993.52
2023-03-29T03:58:12.567Z,100992.66
2023-03-29T04:00:40.412Z,100993.01
2023-03-29T04:03:19.951Z,100991.43
2023-03-29T04:05:48.749Z,100996.56
2023-03-29T04:08:17.509Z,100999.29
2023-03-29T04:11:20.788Z,101003.44
2023-03-29T04:13:51.675Z,101005.16
2023-03-29T04:16:27.797Z,101005.49
2023-03-29T04:18:57.232Z,101008.92
2023-03-29T04:21:25.441Z,101007.55
2023-03-29T04:23:53.677Z,101008.38
2023-03-29T04:26:22.985Z,101009.71
2023-03-29T04:29:03.862Z,101013.10
2023-03-29T04:31:41.010Z,101017.55
2023-03-29T04:34:41.675Z,101019.95
2023-03-29T04:37:10.276Z,101025.48
2023-03-29T04:39:39.219Z,101033.25
2023-03-29T04:42:09.534Z,101029.25
2023-03-29T04:44:37.858Z,101030.77
2023-03-29T04:47:07.015Z,101034.67
2023-03-29T04:49:43.575Z,101037.35
2023-03-29T04:52:16.211Z,101039.38
2023-03-29T04:54:44.456Z,101042.63
2023-03-29T04:57:22.621Z,101045.05
2023-03-29T05:00:15.560Z,101043.92
2023-03-29T05:03:04.467Z,101049.30
2023-03-29T05:05:34.117Z,101049.10
2023-03-29T05:08:03.632Z,101049.94
2023-03-29T05:10:42.614Z,101053.95
2023-03-29T05:13:11.199Z,101057.05
2023-03-29T05:15:41.824Z,101057.88
2023-03-29T05:18:10.735Z,101059.20
2023-03-29T05:20:41.101Z,101065.19
2023-03-29T05:23:10.750Z,101067.93
2023-03-29T05:26:01.267Z,101068.54
2023-03-29T05:28:29.009Z,101073.08
2023-03-29T05:31:02.047Z,101071.54
2023-03-29T05:33:31.011Z,101070.14
2023-03-29T05:36:08.322Z,101065.54
2023-03-29T05:38:39.338Z,101066.65
2023-03-29T05:41:07.477Z,101066.73
2023-03-29T05:43:54.100Z,101068.01
2023-03-29T05:46:24.269Z,101070.70
2023-03-29T05:48:54.110Z,101073.36
2023-03-29T05:51:24.802Z,101076.15
2023-03-29T05:53:55.373Z,101073.98
2023-03-29T05:56:23.267Z,101074.35
2023-03-29T05:58:54.893Z,101078.61
2023-03-29T06:01:24.664Z,101082.03
2023-03-29T06:04:02.282Z,101082.36
2023-03-29T06:06:37.860Z,101078.86
2023-03-29T06:09:05.806Z,101078.41
2023-03-29T06:11:40.838Z,101081.04
2023-03-29T06:14:09.196Z,101082.75
2023-03-29T06:16:43.327Z,101084.11
2023-03-29T06:19:11.756Z,101085.07
2023-03-29T06:21:41.267Z,101086.66
2023-03-29T06:24:10.390Z,101090.30
2023-03-29T06:26:42.215Z,101092.06
2023-03-29T06:29:10.602Z,101091.20
2023-03-29T06:31:40.892Z,101093.95
2023-03-29T06:34:09.692Z,101095.34
2023-03-29T06:37:03.553Z,101096.90
2023-03-29T06:39:31.654Z,101095.16
2023-03-29T06:42:21.563Z,101093.20
2023-03-29T06:45:11.429Z,101099.05
2023-03-29T06:47:40.775Z,101101.77
2023-03-29T06:50:09.265Z,101104.84
2023-03-29T06:52:49.920Z,101108.41
2023-03-29T06:55:21.770Z,101108.56
2023-03-29T06:57:50.770Z,101112.37
2023-03-29T07:00:19.552Z,101115.13
2023-03-29T07:03:08.354Z,101112.89
2023-03-29T07:05:37.229Z,101115.69
2023-03-29T07:08:05.705Z,101117.45
2023-03-29T07:10:49.011Z,101122.64
2023-03-29T07:13:35.010Z,101130.45
2023-03-29T07:16:05.364Z,101130.66
2023-03-29T07:18:53.452Z,101131.70
2023-03-29T07:21:37.961Z,101135.66
2023-03-29T07:24:07.014Z,101140.51
2023-03-29T07:26:36.552Z,101145.88
2023-03-29T07:29:04.516Z,101151.05
2023-03-29T07:31:35.109Z,101151.20
2023-03-29T07:34:24.451Z,101152.95
2023-03-29T07:36:52.688Z,101156.77
2023-03-29T07:39:20.462Z,101158.89
2023-03-29T07:42:01.532Z,101158.25
2023-03-29T07:44:29.534Z,101161.20
2023-03-29T07:47:00.055Z,101167.41
2023-03-29T07:49:29.442Z,101165.86
2023-03-29T07:51:57.267Z,101167.10
2023-03-29T07:54:25.822Z,101171.41
2023-03-29T07:57:18.290Z,101174.01
2023-03-29T07:59:53.277Z,101173.65
2023-03-29T08:02:27.248Z,101177.98
2023-03-29T08:04:57.486Z,101181.27
2023-03-29T08:07:31.307Z,101177.64
2023-03-29T08:10:05.635Z,101180.58
2023-03-29T08:12:53.905Z,101181.09
2023-03-29T08:15:28.066Z,101179.90
2023-03-29T08:17:56.520Z,101180.09
2023-03-29T08:20:27.541Z,101181.81
2023-03-29T08:22:57.487Z,101182.66
2023-03-29T08:25:46.081Z,101185.58
2023-03-29T08:28:14.004Z,101184.03
2023-03-29T08:30:46.246Z,101183.36
2023-03-29T08:33:14.318Z,101185.10
2023-03-29T08:35:42.792Z,101182.86
2023-03-29T08:38:22.076Z,101184.07
2023-03-29T08:40:50.705Z,101185.79
2023-03-29T08:43:26.028Z,101181.48
2023-03-29T08:46:19.227Z,101186.31
2023-03-29T08:48:52.422Z,101185.11
2023-03-29T08:51:21.961Z,101187.17
2023-03-29T08:53:52.629Z,101185.61
2023-03-29T08:56:31.461Z,101187.86
2023-03-29T08:59:19.752Z,101178.20
2023-03-29T09:01:50.320Z,101179.75
2023-03-29T09:04:23.009Z,101179.05
2023-03-29T09:06:55.662Z,101175.61
2023-03-29T09:09:34.907Z,101171.11
2023-03-29T09:12:45.102Z,101169.91
2023-03-29T09:15:15.891Z,101172.15
2023-03-29T09:18:02.713Z,101176.30
2023-03-29T09:20:34.028Z,101173.20
2023-03-29T09:23:12.025Z,101172.33
2023-03-29T09:26:12.387Z,101173.52
2023-03-29T09:29:00.188Z,101173.66
2023-03-29T09:31:35.267Z,101176.09
2023-03-29T09:34:14.446Z,101177.13
2023-03-29T09:37:22.776Z,101177.46
2023-03-29T09:39:53.256Z,101181.79
2023-03-29T09:42:22.945Z,101179.50
2023-03-29T09:44:53.503Z,101179.50
2023-03-29T09:47:26.416Z,101175.88
2023-03-29T09:50:04.649Z,101175.04
2023-03-29T09:52:32.926Z,101166.72
2023-03-29T09:55:16.789Z,101164.81
2023-03-29T09:57:53.584Z,101161.85
2023-03-29T10:00:21.958Z,101162.72
2023-03-29T10:02:53.792Z,101162.89
2023-03-29T10:05:26.621Z,101155.29
2023-03-29T10:07:57.810Z,101159.04
2023-03-29T10:10:33.424Z,101162.46
2023-03-29T10:13:05.351Z,101163.16
2023-03-29T10:15:33.300Z,101158.83
2023-03-29T10:18:03.912Z,101158.63
2023-03-29T10:20:34.664Z,101161.55
2023-03-29T10:23:02.417Z,101153.23
2023-03-29T10:25:31.815Z,101155.80
2023-03-29T10:28:05.226Z,101154.11
2023-03-29T10:30:35.895Z,101150.83
2023-03-29T10:33:04.115Z,101150.30
2023-03-29T10:35:38.778Z,101151.65
2023-03-29T10:38:10.086Z,101153.23
2023-03-29T10:40:47.193Z,101143.70
2023-03-29T10:43:21.424Z,101144.94
2023-03-29T10:45:50.909Z,101142.67
2023-03-29T10:48:19.667Z,101148.05
2023-03-29T10:50:52.972Z,101151.68
2023-03-29T10:53:35.609Z,101146.45
2023-03-29T10:56:23.056Z,101138.59
2023-03-29T10:58:57.017Z,101136.59
2023-03-29T11:01:43.808Z,101133.39
2023-03-29T11:04:12.131Z,101135.48
2023-03-29T11:06:47.700Z,101130.73
2023-03-29T11:09:32.336Z,101129.66
2023-03-29T11:12:14.818Z,101119.70
2023-03-29T11:14:56.541Z,101116.91
2023-03-29T11:17:34.870Z,101109.33
2023-03-29T11:20:23.063Z,101108.04
2023-03-29T11:22:51.672Z,101106.11
2023-03-29T11:25:22.376Z,101104.42
2023-03-29T11:27:53.815Z,101096.76
2023-03-29T11:30:28.116Z,101094.57
2023-03-29T11:32:56.064Z,101091.56
2023-03-29T11:35:37.751Z,101088.55
2023-03-29T11:38:13.845Z,101091.86
2023-03-29T11:40:41.698Z,101082.71
2023-03-29T11:43:13.698Z,101072.93
2023-03-29T11:45:46.657Z,101069.52
2023-03-29T11:48:24.245Z,101070.88
2023-03-29T11:51:18.043Z,101070.17
2023-03-29T11:53:52.481Z,101064.30
2023-03-29T11:56:24.886Z,101066.06
2023-03-29T11:58:56.609Z,101067.95
2023-03-29T12:01:34.016Z,101062.38
2023-03-29T12:04:13.805Z,101053.13
2023-03-29T12:06:41.971Z,101045.56
2023-03-29T12:09:16.176Z,101045.41
2023-03-29T12:11:47.763Z,101043.13
2023-03-29T12:14:34.700Z,101041.84
2023-03-29T12:17:05.735Z,101039.67
2023-03-29T12:20:01.650Z,101036.67
2023-03-29T12:22:30.683Z,101037.41
2023-03-29T12:25:00.709Z,101031.39
2023-03-29T12:27:30.402Z,101030.88
2023-03-29T12:30:17.059Z,101029.61
2023-03-29T12:33:15.767Z,101028.48
2023-03-29T12:36:08.901Z,101021.86
2023-03-29T12:38:55.988Z,101020.36
2023-03-29T12:41:45.042Z,101024.12
2023-03-29T12:44:32.597Z,101026.36
2023-03-29T12:47:25.571Z,101028.08
2023-03-29T12:50:00.299Z,101026.76
2023-03-29T12:52:37.085Z,101022.52
2023-03-29T12:55:17.828Z,101018.09
2023-03-29T12:58:06.348Z,101017.88
2023-03-29T13:00:44.738Z,101014.40
2023-03-29T13:03:31.483Z,101014.85
2023-03-29T13:06:02.829Z,101007.25
2023-03-29T13:08:35.732Z,101003.30
2023-03-29T13:11:04.694Z,101001.64
2023-03-29T13:13:36.679Z,101000.97
2023-03-29T13:16:12.332Z,100999.48
2023-03-29T13:18:46.756Z,100997.63
2023-03-29T13:21:23.995Z,100996.09
2023-03-29T13:23:51.805Z,100994.02
2023-03-29T13:26:22.549Z,100986.84
2023-03-29T13:28:53.316Z,100981.64
2023-03-29T13:31:40.514Z,100981.64
2023-03-29T13:34:27.531Z,100979.49
2023-03-29T13:37:14.996Z,100975.82
2023-03-29T13:39:50.990Z,100971.86
2023-03-29T13:42:24.090Z,100969.59
2023-03-29T13:44:54.232Z,100966.86
2023-03-29T13:47:48.942Z,100963.94
2023-03-29T13:50:34.792Z,100963.33
2023-03-29T13:53:26.392Z,100959.15
2023-03-29T13:55:55.034Z,100959.07
2023-03-29T13:58:41.785Z,100957.64
2023-03-29T14:01:26.123Z,100960.04
2023-03-29T14:03:55.634Z,100956.11
2023-03-29T14:06:26.734Z,100953.27
2023-03-29T14:08:55.326Z,100953.34
2023-03-29T14:11:25.023Z,100949.45
2023-03-29T14:13:57.590Z,100946.87
2023-03-29T14:16:31.587Z,100948.20
2023-03-29T14:19:00.211Z,100949.02
2023-03-29T14:21:29.303Z,100945.66
2023-03-29T14:24:01.841Z,100949.08
2023-03-29T14:26:33.618Z,100956.58
2023-03-29T14:29:02.136Z,100957.55
2023-03-29T14:31:29.919Z,100951.08
2023-03-29T14:34:02.217Z,100954.87
2023-03-29T14:36:31.322Z,100947.69
2023-03-29T14:39:08.399Z,100951.86
2023-03-29T14:41:37.670Z,100948.98
2023-03-29T14:44:07.075Z,100946.28
2023-03-29T14:46:35.234Z,100951.03
2023-03-29T14:49:03.951Z,100952.98
2023-03-29T14:51:32.342Z,100946.20
2023-03-29T14:54:01.502Z,100945.82
2023-03-29T14:56:32.907Z,100945.77
2023-03-29T14:59:02.578Z,100942.32
2023-03-29T15:01:31.359Z,100948.46
2023-03-29T15:04:05.160Z,100947.42
2023-03-29T15:06:37.968Z,100947.37
2023-03-29T15:09:06.980Z,100949.44
2023-03-29T15:11:36.233Z,100947.52
2023-03-29T15:14:06.341Z,100944.73
2023-03-29T15:16:37.560Z,100941.59
2023-03-29T15:19:05.294Z,100939.55
2023-03-29T15:21:34.678Z,100937.84
2023-03-29T15:24:04.212Z,100938.76
2023-03-29T15:26:36.722Z,100938.36
2023-03-29T15:29:17.245Z,100940.16
2023-03-29T15:31:54.504Z,100941.39
2023-03-29T15:34:28.365Z,100937.45
2023-03-29T15:36:59.715Z,100936.33
2023-03-29T15:39:28.742Z,100932.90
2023-03-29T15:41:57.560Z,100932.69
2023-03-29T15:44:43.685Z,100930.17
2023-03-29T15:47:12.416Z,100929.64
2023-03-29T15:49:40.374Z,100924.71
2023-03-29T15:52:08.675Z,100927.92
2023-03-29T15:54:37.482Z,100930.06
2023-03-29T15:57:07.245Z,100927.52
2023-03-29T15:59:36.475Z,100927.98
2023-03-29T16:02:04.698Z,100928.60
2023-03-29T16:04:32.706Z,100924.91
2023-03-29T16:07:01.354Z,100926.08
2023-03-29T16:09:29.562Z,100923.93
2023-03-29T16:11:57.639Z,100926.48
2023-03-29T16:14:30.475Z,100922.47
2023-03-29T16:17:03.405Z,100922.27
2023-03-29T16:19:31.902Z,100923.35
2023-03-29T16:22:00.852Z,100921.16
2023-03-29T16:24:31.205Z,100920.92
2023-03-29T16:26:59.395Z,100917.86
2023-03-29T16:29:27.528Z,100919.27
2023-03-29T16:31:56.119Z,100923.18
2023-03-29T16:34:24.261Z,100923.63
2023-03-29T16:36:53.092Z,100921.95
2023-03-29T16:39:20.973Z,100919.73
2023-03-29T16:41:50.186Z,100918.91
2023-03-29T16:44:23.806Z,100922.05
2023-03-29T16:46:54.371Z,100924.17
2023-03-29T16:49:22.680Z,100924.52
2023-03-29T16:51:50.457Z,100924.73
2023-03-29T16:54:18.852Z,100926.16
2023-03-29T16:56:47.249Z,100924.83
2023-03-29T16:59:15.556Z,100924.35
2023-03-29T17:01:43.485Z,100924.39
2023-03-29T17:04:11.858Z,100924.77
2023-03-29T17:06:39.777Z,100927.40
2023-03-29T17:09:07.669Z,100926.23
2023-03-29T17:11:36.505Z,100922.14
2023-03-29T17:14:04.495Z,100928.95
2023-03-29T17:16:32.545Z,100931.77
2023-03-29T17:19:03.279Z,100927.16
2023-03-29T17:21:31.654Z,100927.55
2023-03-29T17:23:59.717Z,100928.98
2023-03-29T17:26:28.556Z,100930.93
2023-03-29T17:28:56.537Z,100932.38
2023-03-29T17:31:26.125Z,100930.85
2023-03-29T17:33:54.613Z,100933.84
2023-03-29T17:36:24.447Z,100939.23
2023-03-29T17:38:52.227Z,100941.02
2023-03-29T17:41:21.309Z,100944.70
2023-03-29T17:43:50.983Z,100944.77
2023-03-29T17:46:23.203Z,100944.46
2023-03-29T17:48:51.367Z,100943.63
2023-03-29T17:51:19.781Z,100943.66
2023-03-29T17:53:48.014Z,100948.85
2023-03-29T17:56:16.233Z,100952.84
2023-03-29T17:58:44.354Z,100956.67
2023-03-29T18:01:13.383Z,100955.84
2023-03-29T18:03:41.807Z,100956.39
2023-03-29T18:06:09.928Z,100960.21
2023-03-29T18:08:38.660Z,100960.77
2023-03-29T18:11:07.718Z,100962.03
2023-03-29T18:13:35.705Z,100968.45
2023-03-29T18:16:04.680Z,100967.94
2023-03-29T18:18:33.205Z,100970.91
2023-03-29T18:21:01.335Z,100973.55
2023-03-29T18:23:29.623Z,100979.09
2023-03-29T18:26:05.838Z,100981.17
2023-03-29T18:28:34.695Z,100980.68
2023-03-29T18:31:02.524Z,100986.23
2023-03-29T18:33:35.267Z,100987.12
2023-03-29T18:36:04.886Z,100985.92
2023-03-29T18:38:36.813Z,100987.16
2023-03-29T18:41:05.280Z,100991.33
2023-03-29T18:43:35.990Z,100990.68
2023-03-29T18:46:07.139Z,100992.92
2023-03-29T18:48:44.632Z,100993.29
2023-03-29T18:51:12.936Z,100994.35
2023-03-29T18:53:44.457Z,100992.30
2023-03-29T18:56:12.770Z,100998.86
2023-03-29T18:58:40.602Z,100998.35
2023-03-29T19:01:10.992Z,100999.73
2023-03-29T19:03:39.480Z,100998.88
2023-03-29T19:06:07.959Z,101000.77
2023-03-29T19:08:38.721Z,101001.64
2023-03-29T19:11:08.467Z,100998.53
2023-03-29T19:13:36.415Z,101002.16
2023-03-29T19:16:04.557Z,101002.86
2023-03-29T19:18:33.292Z,101001.31
2023-03-29T19:21:01.136Z,101001.14
2023-03-29T19:23:28.960Z,101003.73
2023-03-29T19:25:57.798Z,101002.52
2023-03-29T19:28:26.478Z,101004.25
2023-03-29T19:30:55.193Z,100999.95
2023-03-29T19:33:23.159Z,101000.80
2023-03-29T19:35:52.297Z,101001.15
2023-03-29T19:38:20.759Z,100998.05
2023-03-29T19:40:49.444Z,101000.64
2023-03-29T19:43:18.147Z,100999.27
2023-03-29T19:45:47.141Z,101001.16
2023-03-29T19:48:21.820Z,101007.72
2023-03-29T19:50:51.487Z,101005.98
2023-03-29T19:53:19.393Z,101005.13
2023-03-29T19:55:48.798Z,101005.64
2023-03-29T19:58:16.540Z,101004.08
2023-03-29T20:00:44.238Z,100999.09
2023-03-29T20:03:14.309Z,100996.31
2023-03-29T20:05:42.720Z,100992.17
2023-03-29T20:08:10.740Z,100989.41
2023-03-29T20:10:38.930Z,100992.33
2023-03-29T20:13:06.860Z,100991.81
2023-03-29T20:15:35.342Z,100993.02
2023-03-29T20:18:03.575Z,100997.16
2023-03-29T20:20:31.953Z,100997.85
2023-03-29T20:23:04.729Z,100995.77
2023-03-29T20:25:36.542Z,100995.59
2023-03-29T20:28:04.837Z,100998.85
2023-03-29T20:30:32.949Z,100996.42
2023-03-29T20:33:01.099Z,100996.61
2023-03-29T20:35:29.014Z,100992.46
2023-03-29T20:37:57.046Z,100992.44
2023-03-29T20:40:25.478Z,100990.36
2023-03-29T20:42:54.296Z,100993.77
2023-03-29T20:45:22.776Z,100997.23
2023-03-29T20:47:56.344Z,100994.65
2023-03-29T20:50:28.527Z,100993.25
2023-03-29T20:52:57.142Z,100993.06
2023-03-29T20:55:25.241Z,100991.15
2023-03-29T20:57:59.689Z,100993.73
2023-03-29T21:00:29.031Z,100989.77
2023-03-29T21:02:58.737Z,100987.34
2023-03-29T21:05:27.985Z,100988.39
2023-03-29T21:07:58.706Z,100991.14
2023-03-29T21:10:27.613Z,100987.34
2023-03-29T21:13:00.505Z,100986.13
2023-03-29T21:15:30.540Z,100985.79
2023-03-29T21:17:58.865Z,100983.03
2023-03-29T21:20:27.585Z,100983.20
2023-03-29T21:22:55.410Z,100978.88
2023-03-29T21:25:23.238Z,100974.92
2023-03-29T21:27:51.233Z,100974.41
2023-03-29T21:30:19.241Z,100972.67
2023-03-29T21:32:47.201Z,100974.74
2023-03-29T21:35:16.056Z,100977.82
2023-03-29T21:37:43.936Z,100975.05
2023-03-29T21:40:12.702Z,100973.66
2023-03-29T21:42:41.097Z,100970.72
2023-03-29T21:45:09.361Z,100968.98
2023-03-29T21:47:37.638Z,100967.79
2023-03-29T21:50:06.018Z,100969.49
2023-03-29T21:52:33.841Z,100976.19
2023-03-29T21:55:01.823Z,100979.95
2023-03-29T21:57:30.062Z,100977.72
2023-03-29T21:59:57.889Z,100977.89
2023-03-29T22:02:26.311Z,100975.66
2023-03-29T22:04:54.679Z,100981.48
2023-03-29T22:07:22.831Z,100985.59
2023-03-29T22:09:50.874Z,100985.23
2023-03-29T22:12:19.071Z,100980.94
2023-03-29T22:14:47.039Z,100981.77
2023-03-29T22:17:16.086Z,100979.02
2023-03-29T22:19:44.046Z,100980.91
2023-03-29T22:22:14.279Z,100972.14
2023-03-29T22:24:42.688Z,100967.48
2023-03-29T22:27:11.946Z,100962.98
2023-03-29T22:29:39.764Z,100963.30
2023-03-29T22:32:07.872Z,100967.75
2023-03-29T22:34:35.733Z,100971.16
2023-03-29T22:37:03.500Z,100977.51
2023-03-29T22:39:31.667Z,100977.49
2023-03-29T22:41:59.737Z,100969.91
2023-03-29T22:44:27.718Z,100968.85
2023-03-29T22:46:56.013Z,100969.69
2023-03-29T22:49:23.875Z,100972.42
2023-03-29T22:51:51.798Z,100971.73
2023-03-29T22:54:19.870Z,100965.88
2023-03-29T22:56:48.070Z,100965.86
2023-03-29T22:59:16.226Z,100966.70
2023-03-29T23:01:44.047Z,100967.54
2023-03-29T23:04:12.125Z,100974.40
2023-03-29T23:06:41.176Z,100974.03
2023-03-29T23:09:09.561Z,100969.19
2023-03-29T23:11:37.362Z,100968.65
2023-03-29T23:14:05.221Z,100969.48
2023-03-29T23:16:33.058Z,100969.29
2023-03-29T23:19:01.315Z,100974.95
2023-03-29T23:21:29.310Z,100976.98
2023-03-29T23:23:57.514Z,100974.23
2023-03-29T23:26:25.456Z,100975.23
2023-03-29T23:28:54.724Z,100976.77
2023-03-29T23:31:23.968Z,100977.44
2023-03-29T23:33:53.321Z,100975.34
2023-03-29T23:36:27.177Z,100977.06
2023-03-29T23:38:55.261Z,100979.42
2023-03-29T23:41:28.426Z,100984.20
2023-03-29T23:43:57.728Z,100979.91
2023-03-29T23:46:26.065Z,100976.45
2023-03-29T23:48:53.887Z,100973.01
2023-03-29T23:51:28.266Z,100968.36
2023-03-29T23:53:56.900Z,100971.29
2023-03-29T23:56:24.969Z,100972.48
2023-03-29T23:58:53.253Z,100969.55
